sensor_id;sensor_type;location;lat;lon;timestamp;pressure;altitude;pressure_sealevel;temperature;humidity
77537;BME280;67783;51.656;16.106;2023-03-01T00:00:30;103240.45;;;0.73;58.21
77537;BME280;67783;51.656;16.106;2023-03-01T00:03:37;103246.58;;;0.69;58.72
77537;BME280;67783;51.656;16.106;2023-03-01T00:06:39;103252.70;;;0.67;58.25
77537;BME280;67783;51.656;16.106;2023-03-01T00:09:41;103249.16;;;0.62;58.53
77537;BME280;67783;51.656;16.106;2023-03-01T00:12:49;103240.30;;;0.57;59.91
77537;BME280;67783;51.656;16.106;2023-03-01T00:15:50;103249.04;;;0.51;58.74
77537;BME280;67783;51.656;16.106;2023-03-01T00:18:54;103240.19;;;0.43;59.81
77537;BME280;67783;51.656;16.106;2023-03-01T00:21:56;103231.38;;;0.41;58.76
77537;BME280;67783;51.656;16.106;2023-03-01T00:24:58;103226.08;;;0.39;59.00
77537;BME280;67783;51.656;16.106;2023-03-01T00:28:10;103218.12;;;0.35;60.49
77537;BME280;67783;51.656;16.106;2023-03-01T00:31:14;103227.77;;;0.34;58.83
77537;BME280;67783;51.656;16.106;2023-03-01T00:34:16;103220.72;;;0.29;59.49
77537;BME280;67783;51.656;16.106;2023-03-01T00:37:18;103225.94;;;0.26;58.90
77537;BME280;67783;51.656;16.106;2023-03-01T00:40:19;103224.98;;;0.21;59.15
77537;BME280;67783;51.656;16.106;2023-03-01T00:43:31;103217.98;;;0.20;60.58
77537;BME280;67783;51.656;16.106;2023-03-01T00:46:38;103209.18;;;0.19;58.90
77537;BME280;67783;51.656;16.106;2023-03-01T00:49:40;103196.83;;;0.15;59.43
77537;BME280;67783;51.656;16.106;2023-03-01T00:52:42;103200.35;;;0.16;58.98
77537;BME280;67783;51.656;16.106;2023-03-01T00:55:44;103198.57;;;0.15;59.13
77537;BME280;67783;51.656;16.106;2023-03-01T00:58:51;103194.16;;;0.12;60.15
77537;BME280;67783;51.656;16.106;2023-03-01T01:01:53;103183.59;;;0.11;58.93
77537;BME280;67783;51.656;16.106;2023-03-01T01:04:55;103195.88;;;0.09;59.60
77537;BME280;67783;51.656;16.106;2023-03-01T01:07:57;103187.93;;;0.06;58.96
77537;BME280;67783;51.656;16.106;2023-03-01T01:10:59;103189.69;;;0.04;59.33
77537;BME280;67783;51.656;16.106;2023-03-01T01:14:01;103187.06;;;0.04;59.04
77537;BME280;67783;51.656;16.106;2023-03-01T01:17:03;103183.51;;;0.02;59.30
77537;BME280;67783;51.656;16.106;2023-03-01T01:20:10;103179.08;;;0.00;61.02
77537;BME280;67783;51.656;16.106;2023-03-01T01:23:12;103183.51;;;0.02;59.27
77537;BME280;67783;51.656;16.106;2023-03-01T01:26:24;103178.22;;;0.00;59.76
77537;BME280;67783;51.656;16.106;2023-03-01T01:29:34;103168.52;;;-0.03;60.87
77537;BME280;67783;51.656;16.106;2023-03-01T01:32:36;103166.73;;;-0.04;59.38
77537;BME280;67783;51.656;16.106;2023-03-01T01:35:38;103163.22;;;-0.06;60.06
77537;BME280;67783;51.656;16.106;2023-03-01T01:38:40;103171.13;;;-0.06;59.34
77537;BME280;67783;51.656;16.106;2023-03-01T01:41:43;103160.56;;;-0.09;59.69
77537;BME280;67783;51.656;16.106;2023-03-01T01:48:16;103152.58;;;-0.15;59.34
77537;BME280;67783;51.656;16.106;2023-03-01T01:51:25;103137.56;;;-0.20;59.71
77537;BME280;67783;51.656;16.106;2023-03-01T01:54:35;103140.21;;;-0.22;60.86
77537;BME280;67783;51.656;16.106;2023-03-01T01:57:41;103141.93;;;-0.24;59.46
77537;BME280;67783;51.656;16.106;2023-03-01T02:00:44;103131.36;;;-0.27;59.82
77537;BME280;67783;51.656;16.106;2023-03-01T02:03:52;103126.95;;;-0.28;61.60
77537;BME280;67783;51.656;16.106;2023-03-01T02:10:09;103126.91;;;-0.34;60.00
77537;BME280;67783;51.656;16.106;2023-03-01T02:13:18;103134.75;;;-0.37;61.57
77537;BME280;67783;51.656;16.106;2023-03-01T02:16:20;103131.23;;;-0.39;59.90
77537;BME280;67783;51.656;16.106;2023-03-01T02:19:35;103138.22;;;-0.41;60.60
77537;BME280;67783;51.656;16.106;2023-03-01T02:22:46;103139.11;;;-0.42;61.42
77537;BME280;67783;51.656;16.106;2023-03-01T02:25:58;103132.10;;;-0.41;59.91
77537;BME280;67783;51.656;16.106;2023-03-01T02:29:03;103140.80;;;-0.46;60.10
77537;BME280;67783;51.656;16.106;2023-03-01T02:32:12;103139.00;;;-0.50;61.11
77537;BME280;67783;51.656;16.106;2023-03-01T02:35:18;103152.17;;;-0.50;60.00
77537;BME280;67783;51.656;16.106;2023-03-01T02:38:21;103153.92;;;-0.52;60.38
77537;BME280;67783;51.656;16.106;2023-03-01T02:41:27;103157.45;;;-0.50;59.94
77537;BME280;67783;51.656;16.106;2023-03-01T02:44:30;103160.07;;;-0.51;60.18
77537;BME280;67783;51.656;16.106;2023-03-01T02:47:35;103162.66;;;-0.56;61.74
77537;BME280;67783;51.656;16.106;2023-03-01T02:53:59;103160.81;;;-0.63;60.79
77537;BME280;67783;51.656;16.106;2023-03-01T02:57:03;103159.86;;;-0.66;62.50
77537;BME280;67783;51.656;16.106;2023-03-01T03:00:08;103150.23;;;-0.67;60.59
77537;BME280;67783;51.656;16.106;2023-03-01T03:03:14;103151.05;;;-0.70;61.14
77537;BME280;67783;51.656;16.106;2023-03-01T03:06:16;103147.52;;;-0.72;60.63
77537;BME280;67783;51.656;16.106;2023-03-01T03:09:19;103139.60;;;-0.73;60.75
77537;BME280;67783;51.656;16.106;2023-03-01T03:12:23;103138.72;;;-0.75;61.87
77537;BME280;67783;51.656;16.106;2023-03-01T03:15:26;103134.30;;;-0.76;60.46
77537;BME280;67783;51.656;16.106;2023-03-01T03:18:29;103130.75;;;-0.78;60.89
77537;BME280;67783;51.656;16.106;2023-03-01T03:21:34;103135.16;;;-0.79;60.41
77537;BME280;67783;51.656;16.106;2023-03-01T03:24:36;103128.09;;;-0.81;60.58
77537;BME280;67783;51.656;16.106;2023-03-01T03:27:46;103127.20;;;-0.83;62.20
77537;BME280;67783;51.656;16.106;2023-03-01T03:30:48;103124.54;;;-0.85;60.66
77537;BME280;67783;51.656;16.106;2023-03-01T03:33:51;103121.01;;;-0.85;61.16
77537;BME280;67783;51.656;16.106;2023-03-01T03:36:56;103124.54;;;-0.85;60.51
77537;BME280;67783;51.656;16.106;2023-03-01T03:40:00;103119.23;;;-0.88;60.69
77537;BME280;67783;51.656;16.106;2023-03-01T03:43:11;103115.69;;;-0.90;61.83
77537;BME280;67783;51.656;16.106;2023-03-01T03:46:13;103109.53;;;-0.90;60.58
77537;BME280;67783;51.656;16.106;2023-03-01T03:49:15;103113.05;;;-0.91;61.14
77537;BME280;67783;51.656;16.106;2023-03-01T03:52:17;103112.17;;;-0.90;60.61
77537;BME280;67783;51.656;16.106;2023-03-01T03:55:19;103107.77;;;-0.93;60.87
77537;BME280;67783;51.656;16.106;2023-03-01T03:58:26;103116.52;;;-0.96;62.46
77537;BME280;67783;51.656;16.106;2023-03-01T04:01:28;103113.88;;;-0.96;60.75
77537;BME280;67783;51.656;16.106;2023-03-01T04:04:31;103118.23;;;-0.98;61.53
77537;BME280;67783;51.656;16.106;2023-03-01T04:07:32;103120.88;;;-0.96;60.75
77537;BME280;67783;51.656;16.106;2023-03-01T04:10:40;103117.36;;;-0.97;61.13
77537;BME280;67783;51.656;16.106;2023-03-01T04:13:47;103116.48;;;-0.97;62.10
77537;BME280;67783;51.656;16.106;2023-03-01T04:16:49;103112.11;;;-0.97;60.82
77537;BME280;67783;51.656;16.106;2023-03-01T04:19:51;103114.70;;;-0.98;61.27
77537;BME280;67783;51.656;16.106;2023-03-01T04:26:17;103108.48;;;-1.03;61.05
77537;BME280;67783;51.656;16.106;2023-03-01T04:29:22;103104.08;;;-1.06;62.04
77537;BME280;67783;51.656;16.106;2023-03-01T04:32:23;103101.48;;;-1.04;60.93
77537;BME280;67783;51.656;16.106;2023-03-01T04:35:25;103097.92;;;-1.08;61.52
77537;BME280;67783;51.656;16.106;2023-03-01T04:38:27;103100.56;;;-1.08;60.84
77537;BME280;67783;51.656;16.106;2023-03-01T04:41:29;103101.41;;;-1.07;61.31
77537;BME280;67783;51.656;16.106;2023-03-01T04:44:30;103093.55;;;-1.06;60.87
77537;BME280;67783;51.656;16.106;2023-03-01T04:47:32;103103.20;;;-1.08;60.94
77537;BME280;67783;51.656;16.106;2023-03-01T04:50:37;103105.77;;;-1.11;61.77
77537;BME280;67783;51.656;16.106;2023-03-01T04:53:40;103099.61;;;-1.13;60.81
77537;BME280;67783;51.656;16.106;2023-03-01T04:56:42;103103.95;;;-1.15;61.39
77537;BME280;67783;51.656;16.106;2023-03-01T04:59:44;103102.17;;;-1.16;60.91
77537;BME280;67783;51.656;16.106;2023-03-01T05:02:54;103103.03;;;-1.18;61.19
77537;BME280;67783;51.656;16.106;2023-03-01T05:05:58;103096.85;;;-1.22;62.20
77537;BME280;67783;51.656;16.106;2023-03-01T05:09:01;103104.71;;;-1.23;61.02
77537;BME280;67783;51.656;16.106;2023-03-01T05:12:03;103101.19;;;-1.25;61.61
77537;BME280;67783;51.656;16.106;2023-03-01T05:15:06;103097.67;;;-1.26;60.93
77537;BME280;67783;51.656;16.106;2023-03-01T05:18:08;103090.63;;;-1.27;61.15
77537;BME280;67783;51.656;16.106;2023-03-01T05:21:19;103080.10;;;-1.28;62.25
77537;BME280;67783;51.656;16.106;2023-03-01T05:24:21;103081.85;;;-1.29;60.92
77537;BME280;67783;51.656;16.106;2023-03-01T05:27:23;103082.70;;;-1.30;61.58
77537;BME280;67783;51.656;16.106;2023-03-01T05:30:25;103072.18;;;-1.30;60.95
77537;BME280;67783;51.656;16.106;2023-03-01T05:33:28;103075.66;;;-1.31;61.42
77537;BME280;67783;51.656;16.106;2023-03-01T05:36:40;103060.77;;;-1.30;62.65
77537;BME280;67783;51.656;16.106;2023-03-01T05:39:42;103066.05;;;-1.27;61.28
77537;BME280;67783;51.656;16.106;2023-03-01T05:42:49;103045.90;;;-1.27;62.12
77537;BME280;67783;51.656;16.106;2023-03-01T05:45:51;103048.56;;;-1.24;61.26
77537;BME280;67783;51.656;16.106;2023-03-01T05:48:53;103050.38;;;-1.21;61.55
77537;BME280;67783;51.656;16.106;2023-03-01T05:52:01;103058.33;;;-1.17;63.05
77537;BME280;67783;51.656;16.106;2023-03-01T05:55:03;103064.50;;;-1.12;61.65
77537;BME280;67783;51.656;16.106;2023-03-01T05:58:09;103066.34;;;-1.06;62.30
77537;BME280;67783;51.656;16.106;2023-03-01T06:01:12;103072.56;;;-1.01;61.50
77537;BME280;67783;51.656;16.106;2023-03-01T06:04:14;103070.84;;;-0.98;61.62
77537;BME280;67783;51.656;16.106;2023-03-01T06:07:22;103068.21;;;-0.98;63.02
77537;BME280;67783;51.656;16.106;2023-03-01T06:10:24;103071.73;;;-0.97;61.70
77537;BME280;67783;51.656;16.106;2023-03-01T06:13:26;103063.80;;;-0.99;62.71
77537;BME280;67783;51.656;16.106;2023-03-01T06:16:27;103061.17;;;-0.99;61.79
77537;BME280;67783;51.656;16.106;2023-03-01T06:19:29;103058.51;;;-1.02;62.20
77537;BME280;67783;51.656;16.106;2023-03-01T06:22:31;103055.91;;;-1.00;61.79
77537;BME280;67783;51.656;16.106;2023-03-01T06:25:33;103058.61;;;-0.96;62.15
77537;BME280;67783;51.656;16.106;2023-03-01T06:28:38;103030.36;;;-1.09;63.35
77537;BME280;67783;51.656;16.106;2023-03-01T06:31:41;103065.72;;;-0.85;61.92
77537;BME280;67783;51.656;16.106;2023-03-01T06:34:42;103082.46;;;-0.80;62.47
77537;BME280;67783;51.656;16.106;2023-03-01T06:37:46;103077.25;;;-0.76;61.81
77537;BME280;67783;51.656;16.106;2023-03-01T06:40:53;103083.44;;;-0.72;62.08
77537;BME280;67783;51.656;16.106;2023-03-01T06:43:59;103101.04;;;-0.68;63.19
77537;BME280;67783;51.656;16.106;2023-03-01T06:47:02;103111.66;;;-0.62;61.89
77537;BME280;67783;51.656;16.106;2023-03-01T06:50:05;103113.46;;;-0.57;62.75
77537;BME280;67783;51.656;16.106;2023-03-01T06:53:07;103109.11;;;-0.53;61.93
77537;BME280;67783;51.656;16.106;2023-03-01T06:56:09;103108.33;;;-0.46;62.35
77537;BME280;67783;51.656;16.106;2023-03-01T06:59:20;103107.52;;;-0.39;63.32
77537;BME280;67783;51.656;16.106;2023-03-01T07:02:22;103106.73;;;-0.30;62.10
77537;BME280;67783;51.656;16.106;2023-03-01T07:05:24;103082.01;;;-0.43;62.86
77537;BME280;67783;51.656;16.106;2023-03-01T07:08:26;103111.24;;;-0.19;62.04
77537;BME280;67783;51.656;16.106;2023-03-01T07:11:28;103114.80;;;-0.14;62.56
77537;BME280;67783;51.656;16.106;2023-03-01T07:14:30;103110.50;;;-0.06;62.08
77537;BME280;67783;51.656;16.106;2023-03-01T07:17:32;103105.31;;;0.04;62.36
77537;BME280;67783;51.656;16.106;2023-03-01T07:20:37;103100.09;;;0.13;63.52
77537;BME280;67783;51.656;16.106;2023-03-01T07:23:39;103102.86;;;0.25;62.05
77537;BME280;67783;51.656;16.106;2023-03-01T07:26:41;103105.58;;;0.37;62.62
77537;BME280;67783;51.656;16.106;2023-03-01T07:29:43;103103.91;;;0.51;61.86
77537;BME280;67783;51.656;16.106;2023-03-01T07:32:44;103104.86;;;0.62;62.14
77537;BME280;67783;51.656;16.106;2023-03-01T07:35:47;103097.03;;;0.74;61.73
77537;BME280;67783;51.656;16.106;2023-03-01T07:38:49;103095.34;;;0.85;61.79
77537;BME280;67783;51.656;16.106;2023-03-01T07:41:53;103097.17;;;0.99;62.63
77537;BME280;67783;51.656;16.106;2023-03-01T07:44:55;103101.63;;;1.13;61.47
77537;BME280;67783;51.656;16.106;2023-03-01T07:47:57;103104.34;;;1.24;61.92
77537;BME280;67783;51.656;16.106;2023-03-01T07:51:00;103105.23;;;1.33;61.32
77537;BME280;67783;51.656;16.106;2023-03-01T07:54:02;103099.98;;;1.44;61.47
77537;BME280;67783;51.656;16.106;2023-03-01T07:57:14;103090.32;;;1.55;61.89
77537;BME280;67783;51.656;16.106;2023-03-01T08:00:17;103087.72;;;1.69;61.00
77537;BME280;67783;51.656;16.106;2023-03-01T08:03:19;103086.84;;;1.80;61.35
77537;BME280;67783;51.656;16.106;2023-03-01T08:06:21;103090.41;;;1.95;60.82
77537;BME280;67783;51.656;16.106;2023-03-01T08:09:23;103088.63;;;2.09;60.88
77537;BME280;67783;51.656;16.106;2023-03-01T08:12:35;103084.23;;;2.23;61.26
77537;BME280;67783;51.656;16.106;2023-03-01T08:15:37;103073.61;;;2.37;60.55
77537;BME280;67783;51.656;16.106;2023-03-01T08:18:39;103077.13;;;2.52;60.65
77537;BME280;67783;51.656;16.106;2023-03-01T08:21:41;103085.05;;;2.67;60.28
77537;BME280;67783;51.656;16.106;2023-03-01T08:24:43;103077.93;;;2.83;60.19
77537;BME280;67783;51.656;16.106;2023-03-01T08:27:45;103069.07;;;2.98;59.99
77537;BME280;67783;51.656;16.106;2023-03-01T08:30:47;103088.43;;;3.12;59.92
77537;BME280;67783;51.656;16.106;2023-03-01T08:33:54;103078.66;;;3.24;59.72
77537;BME280;67783;51.656;16.106;2023-03-01T08:36:56;103075.94;;;3.38;59.48
77537;BME280;67783;51.656;16.106;2023-03-01T08:40:00;103074.11;;;3.49;59.38
77537;BME280;67783;51.656;16.106;2023-03-01T08:43:02;103070.49;;;3.62;59.22
77537;BME280;67783;51.656;16.106;2023-03-01T08:46:04;103066.91;;;3.69;58.80
77537;BME280;67783;51.656;16.106;2023-03-01T08:49:19;103065.11;;;3.75;57.31
77537;BME280;67783;51.656;16.106;2023-03-01T08:52:21;103052.64;;;3.86;58.51
77537;BME280;67783;51.656;16.106;2023-03-01T08:55:25;103044.60;;;3.96;58.27
77537;BME280;67783;51.656;16.106;2023-03-01T08:58:27;103048.90;;;4.11;58.38
77537;BME280;67783;51.656;16.106;2023-03-01T09:01:28;103061.20;;;4.21;57.74
77537;BME280;67783;51.656;16.106;2023-03-01T09:04:33;103057.59;;;4.27;55.94
77537;BME280;67783;51.656;16.106;2023-03-01T09:07:35;103054.86;;;4.39;57.19
77537;BME280;67783;51.656;16.106;2023-03-01T09:10:38;103046.78;;;4.48;56.33
77537;BME280;67783;51.656;16.106;2023-03-01T09:13:40;103051.02;;;4.64;56.97
77537;BME280;67783;51.656;16.106;2023-03-01T09:16:42;103058.94;;;4.72;55.49
77537;BME280;67783;51.656;16.106;2023-03-01T09:19:54;103034.23;;;4.60;54.78
77537;BME280;67783;51.656;16.106;2023-03-01T09:22:56;103047.23;;;4.88;56.22
77537;BME280;67783;51.656;16.106;2023-03-01T09:25:58;103050.63;;;4.97;55.84
77537;BME280;67783;51.656;16.106;2023-03-01T09:29:00;103051.35;;;5.13;55.54
77537;BME280;67783;51.656;16.106;2023-03-01T09:32:01;103053.95;;;5.18;55.40
77537;BME280;67783;51.656;16.106;2023-03-01T09:35:04;103059.96;;;5.30;55.88
77537;BME280;67783;51.656;16.106;2023-03-01T09:38:06;103060.72;;;5.41;55.38
77537;BME280;67783;51.656;16.106;2023-03-01T09:44:32;103070.30;;;5.51;54.37
77537;BME280;67783;51.656;16.106;2023-03-01T09:47:36;103062.20;;;5.59;54.16
77537;BME280;67783;51.656;16.106;2023-03-01T09:50:43;103061.20;;;5.68;51.84
77537;BME280;67783;51.656;16.106;2023-03-01T09:53:48;103065.41;;;5.82;54.16
77537;BME280;67783;51.656;16.106;2023-03-01T10:00:15;103060.78;;;5.96;50.97
77537;BME280;67783;51.656;16.106;2023-03-01T10:03:36;103057.08;;;6.05;53.62
77537;BME280;67783;51.656;16.106;2023-03-01T10:06:33;103047.16;;;6.16;52.86
77537;BME280;67783;51.656;16.106;2023-03-01T10:09:40;103046.19;;;6.20;48.81
77537;BME280;67783;51.656;16.106;2023-03-01T10:12:43;103039.77;;;6.32;51.16
77537;BME280;67783;51.656;16.106;2023-03-01T10:15:55;103044.16;;;6.34;50.89
77537;BME280;67783;51.656;16.106;2023-03-01T10:19:05;103035.25;;;6.35;47.32
77537;BME280;67783;51.656;16.106;2023-03-01T10:32:04;103024.06;;;6.63;47.50
77537;BME280;67783;51.656;16.106;2023-03-01T10:35:20;103018.57;;;6.72;51.29
77537;BME280;67783;51.656;16.106;2023-03-01T10:38:23;103021.14;;;6.76;50.87
77537;BME280;67783;51.656;16.106;2023-03-01T10:41:30;103013.20;;;6.75;47.60
77537;BME280;67783;51.656;16.106;2023-03-01T10:44:42;103004.32;;;6.74;50.07
77537;BME280;67783;51.656;16.106;2023-03-01T10:47:44;103000.77;;;6.74;50.42
77537;BME280;67783;51.656;16.106;2023-03-01T10:50:51;102998.74;;;6.85;50.80
77537;BME280;67783;51.656;16.106;2023-03-01T10:53:54;103002.06;;;6.96;50.23
77537;BME280;67783;51.656;16.106;2023-03-01T10:57:01;102995.73;;;7.02;47.60
77537;BME280;67783;51.656;16.106;2023-03-01T11:03:30;102988.34;;;7.14;49.01
77537;BME280;67783;51.656;16.106;2023-03-01T11:06:34;102989.05;;;7.22;47.90
77537;BME280;67783;51.656;16.106;2023-03-01T11:09:37;102979.00;;;7.33;49.25
77537;BME280;67783;51.656;16.106;2023-03-01T11:12:40;102970.19;;;7.30;48.14
77537;BME280;67783;51.656;16.106;2023-03-01T11:16:01;102983.20;;;7.45;43.88
77537;BME280;67783;51.656;16.106;2023-03-01T11:22:21;102974.63;;;7.68;47.93
77537;BME280;67783;51.656;16.106;2023-03-01T11:25:34;102972.91;;;7.65;44.09
77537;BME280;67783;51.656;16.106;2023-03-01T11:28:39;102966.70;;;7.65;47.50
77537;BME280;67783;51.656;16.106;2023-03-01T11:31:42;102965.84;;;7.63;47.47
77537;BME280;67783;51.656;16.106;2023-03-01T11:35:02;102964.80;;;7.70;44.95
77537;BME280;67783;51.656;16.106;2023-03-01T11:44:30;102954.08;;;8.05;46.36
77537;BME280;67783;51.656;16.106;2023-03-01T11:50:49;102949.65;;;8.04;45.28
77537;BME280;67783;51.656;16.106;2023-03-01T11:54:04;102959.59;;;7.99;42.72
77537;BME280;67783;51.656;16.106;2023-03-01T12:03:47;102957.77;;;8.00;44.94
77537;BME280;67783;51.656;16.106;2023-03-01T12:10:23;102954.87;;;8.09;45.65
77537;BME280;67783;51.656;16.106;2023-03-01T12:30:39;102921.47;;;8.25;43.44
77537;BME280;67783;51.656;16.106;2023-03-01T12:43:41;102907.25;;;8.57;41.24
77537;BME280;67783;51.656;16.106;2023-03-01T12:56:32;102897.36;;;8.59;37.37
77537;BME280;67783;51.656;16.106;2023-03-01T13:13:00;102877.52;;;8.66;40.80
77537;BME280;67783;51.656;16.106;2023-03-01T13:15:57;102876.61;;;8.67;40.01
77537;BME280;67783;51.656;16.106;2023-03-01T13:19:08;102862.30;;;8.69;37.22
77537;BME280;67783;51.656;16.106;2023-03-01T13:25:27;102859.70;;;8.66;39.46
77537;BME280;67783;51.656;16.106;2023-03-01T13:31:56;102847.05;;;8.71;40.95
77537;BME280;67783;51.656;16.106;2023-03-01T13:35:03;102838.91;;;8.76;40.56
77537;BME280;67783;51.656;16.106;2023-03-01T13:44:36;102830.82;;;9.05;40.51
77537;BME280;67783;51.656;16.106;2023-03-01T13:47:42;102830.62;;;9.11;36.13
77537;BME280;67783;51.656;16.106;2023-03-01T13:50:51;102831.30;;;9.18;40.55
77537;BME280;67783;51.656;16.106;2023-03-01T13:53:56;102798.11;;;8.97;38.25
77537;BME280;67783;51.656;16.106;2023-03-01T13:57:06;102831.64;;;9.07;35.79
77537;BME280;67783;51.656;16.106;2023-03-01T14:03:27;102822.84;;;9.04;39.96
77537;BME280;67783;51.656;16.106;2023-03-01T14:06:33;102815.80;;;9.01;37.91
77537;BME280;67783;51.656;16.106;2023-03-01T14:09:40;102818.38;;;9.04;40.80
77537;BME280;67783;51.656;16.106;2023-03-01T14:19:18;102796.81;;;9.09;40.02
77537;BME280;67783;51.656;16.106;2023-03-01T14:22:32;102806.02;;;9.00;40.10
77537;BME280;67783;51.656;16.106;2023-03-01T14:25:36;102796.97;;;9.04;38.31
77537;BME280;67783;51.656;16.106;2023-03-01T14:28:42;102787.00;;;9.09;40.26
77537;BME280;67783;51.656;16.106;2023-03-01T14:31:44;102779.99;;;9.05;40.34
77537;BME280;67783;51.656;16.106;2023-03-01T14:34:58;102786.38;;;9.01;38.19
77537;BME280;67783;51.656;16.106;2023-03-01T14:38:01;102782.79;;;9.02;40.96
77537;BME280;67783;51.656;16.106;2023-03-01T14:41:14;102782.68;;;9.05;40.59
77537;BME280;67783;51.656;16.106;2023-03-01T14:44:24;102780.92;;;9.04;38.12
77537;BME280;67783;51.656;16.106;2023-03-01T14:47:29;102780.19;;;8.99;40.74
77537;BME280;67783;51.656;16.106;2023-03-01T14:50:36;102781.32;;;8.92;40.29
77537;BME280;67783;51.656;16.106;2023-03-01T14:53:39;102777.73;;;8.93;41.38
77537;BME280;67783;51.656;16.106;2023-03-01T14:56:45;102785.79;;;8.92;41.26
77537;BME280;67783;51.656;16.106;2023-03-01T14:59:49;102784.98;;;8.90;39.01
77537;BME280;67783;51.656;16.106;2023-03-01T15:02:56;102780.52;;;8.90;41.55
77537;BME280;67783;51.656;16.106;2023-03-01T15:06:00;102778.03;;;8.84;41.06
77537;BME280;67783;51.656;16.106;2023-03-01T15:09:16;102780.99;;;8.75;38.98
77537;BME280;67783;51.656;16.106;2023-03-01T15:15:37;102778.54;;;8.69;41.40
77537;BME280;67783;51.656;16.106;2023-03-01T15:18:46;102773.40;;;8.61;39.84
77537;BME280;67783;51.656;16.106;2023-03-01T15:21:49;102769.14;;;8.56;41.41
77537;BME280;67783;51.656;16.106;2023-03-01T15:24:52;102767.77;;;8.43;41.16
77537;BME280;67783;51.656;16.106;2023-03-01T15:27:56;102776.71;;;8.42;42.13
77537;BME280;67783;51.656;16.106;2023-03-01T15:31:12;102776.04;;;8.35;41.96
77537;BME280;67783;51.656;16.106;2023-03-01T15:40:49;102769.23;;;8.23;42.25
77537;BME280;67783;51.656;16.106;2023-03-01T15:43:50;102774.84;;;8.14;41.62
77537;BME280;67783;51.656;16.106;2023-03-01T15:46:55;102779.41;;;8.11;42.62
77537;BME280;67783;51.656;16.106;2023-03-01T15:49:58;102774.20;;;8.06;42.52
77537;BME280;67783;51.656;16.106;2023-03-01T15:53:12;102767.23;;;8.01;41.25
77537;BME280;67783;51.656;16.106;2023-03-01T15:56:15;102765.58;;;7.97;42.88
77537;BME280;67783;51.656;16.106;2023-03-01T15:59:18;102764.88;;;7.90;42.47
77537;BME280;67783;51.656;16.106;2023-03-01T16:02:21;102759.61;;;7.87;43.00
77537;BME280;67783;51.656;16.106;2023-03-01T16:05:29;102761.63;;;7.79;42.99
77537;BME280;67783;51.656;16.106;2023-03-01T16:08:32;102763.63;;;7.71;41.72
77537;BME280;67783;51.656;16.106;2023-03-01T16:11:35;102759.36;;;7.65;43.29
77537;BME280;67783;51.656;16.106;2023-03-01T16:14:38;102774.66;;;7.59;43.12
77537;BME280;67783;51.656;16.106;2023-03-01T16:17:40;102771.33;;;7.51;43.45
77537;BME280;67783;51.656;16.106;2023-03-01T16:20:42;102775.07;;;7.43;43.48
77537;BME280;67783;51.656;16.106;2023-03-01T16:23:52;102770.86;;;7.35;42.66
77537;BME280;67783;51.656;16.106;2023-03-01T16:26:54;102778.08;;;7.31;43.76
77537;BME280;67783;51.656;16.106;2023-03-01T16:29:56;102769.34;;;7.25;43.53
77537;BME280;67783;51.656;16.106;2023-03-01T16:32:58;102780.10;;;7.22;43.95
77537;BME280;67783;51.656;16.106;2023-03-01T16:36:10;102775.87;;;7.13;43.86
77537;BME280;67783;51.656;16.106;2023-03-01T16:39:12;102778.75;;;7.06;43.15
77537;BME280;67783;51.656;16.106;2023-03-01T16:42:13;102772.62;;;7.02;44.20
77537;BME280;67783;51.656;16.106;2023-03-01T16:45:18;102774.59;;;6.94;44.22
77537;BME280;67783;51.656;16.106;2023-03-01T16:48:20;102777.41;;;6.88;44.47
77537;BME280;67783;51.656;16.106;2023-03-01T16:51:23;102782.05;;;6.80;44.41
77537;BME280;67783;51.656;16.106;2023-03-01T16:54:32;102782.27;;;6.71;43.87
77537;BME280;67783;51.656;16.106;2023-03-01T16:57:35;102792.12;;;6.67;44.64
77537;BME280;67783;51.656;16.106;2023-03-01T17:00:37;102790.49;;;6.62;44.56
77537;BME280;67783;51.656;16.106;2023-03-01T17:03:39;102791.47;;;6.58;44.83
77537;BME280;67783;51.656;16.106;2023-03-01T17:06:42;102796.09;;;6.49;44.92
77537;BME280;67783;51.656;16.106;2023-03-01T17:09:53;102790.06;;;6.41;44.80
77537;BME280;67783;51.656;16.106;2023-03-01T17:12:55;102789.30;;;6.35;45.18
77537;BME280;67783;51.656;16.106;2023-03-01T17:15:57;102784.25;;;6.23;45.28
77537;BME280;67783;51.656;16.106;2023-03-01T17:18:59;102791.50;;;6.16;45.44
77537;BME280;67783;51.656;16.106;2023-03-01T17:22:02;102798.80;;;6.07;45.50
77537;BME280;67783;51.656;16.106;2023-03-01T17:25:17;102806.09;;;5.97;45.52
77537;BME280;67783;51.656;16.106;2023-03-01T17:28:23;102814.16;;;5.92;45.67
77537;BME280;67783;51.656;16.106;2023-03-01T17:31:26;102811.70;;;5.82;45.75
77537;BME280;67783;51.656;16.106;2023-03-01T17:34:27;102814.47;;;5.76;45.85
77537;BME280;67783;51.656;16.106;2023-03-01T17:37:31;102804.92;;;5.66;46.02
77537;BME280;67783;51.656;16.106;2023-03-01T17:40:36;102811.28;;;5.57;46.67
77537;BME280;67783;51.656;16.106;2023-03-01T17:43:40;102810.48;;;5.53;46.45
77537;BME280;67783;51.656;16.106;2023-03-01T17:46:42;102803.53;;;5.45;46.90
77537;BME280;67783;51.656;16.106;2023-03-01T17:49:44;102792.16;;;5.35;46.74
77537;BME280;67783;51.656;16.106;2023-03-01T17:52:45;102788.71;;;5.30;47.19
77537;BME280;67783;51.656;16.106;2023-03-01T17:56:02;102787.13;;;5.20;48.20
77537;BME280;67783;51.656;16.106;2023-03-01T17:59:04;102793.42;;;5.15;47.38
77537;BME280;67783;51.656;16.106;2023-03-01T18:02:11;102790.95;;;5.04;47.77
77537;BME280;67783;51.656;16.106;2023-03-01T18:05:24;102789.34;;;4.94;48.66
77537;BME280;67783;51.656;16.106;2023-03-01T18:08:27;102789.47;;;4.86;47.79
77537;BME280;67783;51.656;16.106;2023-03-01T18:11:29;102785.17;;;4.78;48.33
77537;BME280;67783;51.656;16.106;2023-03-01T18:14:31;102789.67;;;4.73;48.02
77537;BME280;67783;51.656;16.106;2023-03-01T18:17:34;102796.01;;;4.64;48.38